Time;durP1;ratioP1;P1;durP2;ratioP2;P2;SDS_P1;SDS_P2;PMS_P1;PMS_P2;Temp;Humidity;BMP_temperature;BMP_pressure;BME280_temperature;BME280_humidity;BME280_pressure;Samples;Min_cycle;Max_cycle;Signal;HPM_P1;HPM_P2
2023/01/13 00:01:45;;;;;;;1.10;0.70;;;22.10;75.20;;;;;;4879422;29;20205;-86
2023/01/13 00:04:12;;;;;;;2.10;1.40;;;22.10;75.20;;;;;;4880152;29;20213;-88
2023/01/13 00:06:39;;;;;;;1.13;0.90;;;22.10;75.20;;;;;;4881121;29;20207;-88
2023/01/13 00:09:05;;;;;;;1.88;1.10;;;22.10;75.10;;;;;;4883756;29;20215;-89
2023/01/13 00:11:32;;;;;;;1.60;0.75;;;22.10;75.10;;;;;;4878403;29;20209;-81
2023/01/13 00:13:59;;;;;;;2.55;0.95;;;22.20;75.10;;;;;;4878167;29;20214;-75
2023/01/13 00:16:25;;;;;;;1.35;1.00;;;21.80;75.40;;;;;;4879448;29;20679;-73
2023/01/13 00:18:53;;;;;;;2.83;1.00;;;21.40;76.50;;;;;;4882685;29;20621;-75
2023/01/13 00:21:21;;;;;;;4.10;1.00;;;21.30;77.30;;;;;;4877281;29;22110;-76
2023/01/13 00:23:49;;;;;;;2.45;1.00;;;21.10;78.00;;;;;;4880172;29;20214;-78
2023/01/13 00:26:18;;;;;;;1.40;0.75;;;21.10;78.40;;;;;;4884073;29;20210;-80
2023/01/13 00:28:44;;;;;;;1.33;0.77;;;21.00;78.70;;;;;;4880089;29;20932;-81
2023/01/13 00:31:13;;;;;;;2.95;0.95;;;21.10;79.10;;;;;;4880782;29;20670;-78
2023/01/13 00:33:40;;;;;;;2.10;0.98;;;21.20;78.90;;;;;;4878814;29;20891;-78
2023/01/13 00:36:12;;;;;;;1.75;1.08;;;21.20;78.70;;;;;;4875259;29;20205;-79
2023/01/13 00:38:41;;;;;;;1.42;0.88;;;21.10;78.90;;;;;;4878739;29;20717;-82
2023/01/13 00:41:11;;;;;;;1.35;0.80;;;21.00;79.10;;;;;;4879854;29;20300;-81
2023/01/13 00:43:37;;;;;;;1.25;0.85;;;21.00;77.90;;;;;;4882634;29;20214;-81
2023/01/13 00:46:04;;;;;;;2.75;0.73;;;20.90;78.40;;;;;;4882493;29;20229;-80
2023/01/13 00:48:32;;;;;;;2.10;0.85;;;20.90;78.80;;;;;;4882055;29;20207;-80
2023/01/13 00:51:01;;;;;;;1.60;0.90;;;20.90;78.80;;;;;;4877253;29;20237;-81
2023/01/13 00:53:33;;;;;;;2.25;0.90;;;20.90;78.60;;;;;;4880618;29;20666;-80
2023/01/13 00:56:00;;;;;;;1.60;0.75;;;21.00;78.50;;;;;;4880764;29;20214;-80
2023/01/13 00:58:28;;;;;;;1.17;0.85;;;21.00;78.60;;;;;;4875233;29;20321;-79
2023/01/13 01:00:54;;;;;;;1.00;0.80;;;20.90;78.50;;;;;;4880112;29;20737;-79
2023/01/13 01:03:21;;;;;;;1.65;0.80;;;20.90;78.50;;;;;;4880459;29;20206;-80
2023/01/13 01:05:48;;;;;;;2.50;0.90;;;20.90;78.70;;;;;;4880311;29;20834;-81
2023/01/13 01:08:14;;;;;;;1.50;1.00;;;20.80;78.60;;;;;;4878837;29;20599;-79
2023/01/13 01:10:42;;;;;;;1.05;0.77;;;20.80;78.70;;;;;;4882716;29;20206;-79
2023/01/13 01:13:10;;;;;;;1.60;0.90;;;20.80;78.80;;;;;;4880958;29;20210;-79
2023/01/13 01:15:40;;;;;;;1.27;0.80;;;20.70;78.80;;;;;;4882413;29;20685;-80
2023/01/13 01:18:07;;;;;;;2.80;1.00;;;20.70;78.90;;;;;;4879277;29;20228;-79
2023/01/13 01:20:33;;;;;;;1.27;0.70;;;20.70;79.00;;;;;;4880554;29;20274;-80
2023/01/13 01:23:00;;;;;;;1.15;0.95;;;20.70;79.10;;;;;;4878394;29;20216;-79
2023/01/13 01:25:27;;;;;;;1.67;1.20;;;20.70;79.20;;;;;;4881380;29;20204;-79
2023/01/13 01:27:55;;;;;;;2.53;0.90;;;20.60;79.20;;;;;;4880715;29;20214;-80
2023/01/13 01:30:22;;;;;;;2.05;1.23;;;20.60;79.30;;;;;;4879607;29;20216;-81
2023/01/13 01:32:48;;;;;;;1.40;0.90;;;20.60;79.30;;;;;;4873794;29;20214;-81
2023/01/13 01:35:15;;;;;;;1.55;0.80;;;20.60;79.40;;;;;;4879323;29;20711;-81
2023/01/13 01:37:42;;;;;;;1.45;0.82;;;20.60;79.50;;;;;;4880399;29;20233;-82
2023/01/13 01:40:10;;;;;;;1.23;0.70;;;20.50;79.50;;;;;;4877239;29;20213;-82
2023/01/13 01:45:25;;;;;;;1.23;1.00;;;20.50;79.50;;;;;;4881257;29;20213;-80
2023/01/13 01:47:56;;;;;;;1.20;0.90;;;20.50;79.60;;;;;;4882970;29;20206;-80
2023/01/13 01:50:23;;;;;;;2.25;0.90;;;20.50;79.60;;;;;;4879479;29;20243;-80
2023/01/13 01:52:56;;;;;;;1.33;0.80;;;20.50;79.80;;;;;;4878569;29;20225;-80
2023/01/13 01:55:27;;;;;;;1.85;0.93;;;20.70;79.60;;;;;;4882330;29;20207;-81
2023/01/13 01:57:57;;;;;;;1.00;0.70;;;20.80;79.00;;;;;;4881504;29;20214;-81
2023/01/13 02:00:27;;;;;;;1.38;0.82;;;20.80;78.60;;;;;;4881712;29;20723;-80
2023/01/13 02:02:55;;;;;;;1.25;0.80;;;20.80;78.40;;;;;;4880118;29;20232;-80
2023/01/13 02:05:22;;;;;;;2.75;1.10;;;20.80;78.50;;;;;;4883333;29;20206;-80
2023/01/13 02:07:53;;;;;;;1.27;1.05;;;20.80;78.50;;;;;;4877607;29;20650;-80
2023/01/13 02:10:23;;;;;;;1.30;0.80;;;20.70;78.40;;;;;;4878845;29;20213;-80
2023/01/13 02:12:50;;;;;;;1.10;0.77;;;20.70;79.30;;;;;;4878296;29;20265;-80
2023/01/13 02:15:20;;;;;;;1.35;0.80;;;20.70;78.50;;;;;;4878350;29;20671;-81
2023/01/13 02:18:22;;;;;;;1.25;1.00;;;20.70;78.60;;;;;;4879913;29;20252;-80
2023/01/13 02:21:15;;;;;;;2.78;0.80;;;20.70;78.70;;;;;;4874429;29;20213;-81
2023/01/13 02:27:17;;;;;;;1.00;0.68;;;20.60;78.80;;;;;;4879054;29;20603;-80
2023/01/13 02:32:55;;;;;;;1.42;0.90;;;20.50;78.90;;;;;;4875663;29;20801;-79
2023/01/13 02:35:26;;;;;;;2.00;0.80;;;20.50;79.00;;;;;;4880180;29;20216;-80
2023/01/13 02:37:54;;;;;;;0.95;0.85;;;20.50;79.00;;;;;;4876732;29;20309;-79
2023/01/13 02:40:25;;;;;;;1.00;0.70;;;20.40;78.90;;;;;;4877129;29;20617;-79
2023/01/13 02:45:53;;;;;;;10.50;2.65;;;20.40;79.00;;;;;;4829391;29;20255;-81
2023/01/13 02:48:23;;;;;;;0.90;0.70;;;20.40;79.10;;;;;;4878702;29;20207;-80
2023/01/13 02:50:55;;;;;;;1.00;0.70;;;20.40;79.10;;;;;;4879070;29;20237;-80
2023/01/13 02:53:26;;;;;;;1.13;0.88;;;20.40;79.10;;;;;;4881349;29;20213;-80
2023/01/13 02:55:55;;;;;;;1.48;0.70;;;20.40;79.20;;;;;;4875203;29;20214;-80
2023/01/13 02:58:26;;;;;;;2.03;0.77;;;20.40;79.20;;;;;;4881395;29;20262;-79
2023/01/13 03:00:54;;;;;;;1.17;0.73;;;20.30;79.10;;;;;;4877103;29;20220;-81
2023/01/13 03:03:21;;;;;;;1.25;0.80;;;20.30;79.20;;;;;;4880469;29;20619;-79
2023/01/13 03:05:51;;;;;;;4.03;0.85;;;20.30;79.20;;;;;;4876903;29;20210;-79
2023/01/13 03:08:41;;;;;;;2.00;0.93;;;20.30;80.00;;;;;;4880900;29;20203;-81
2023/01/13 03:11:11;;;;;;;1.98;0.85;;;20.30;79.30;;;;;;4876666;29;20247;-81
2023/01/13 03:13:57;;;;;;;1.33;0.90;;;20.30;79.30;;;;;;4879995;29;20728;-80
2023/01/13 03:16:31;;;;;;;1.60;0.90;;;20.30;79.30;;;;;;4876955;29;20203;-81
2023/01/13 03:19:13;;;;;;;1.17;0.80;;;20.20;79.30;;;;;;4877746;29;20237;-80
2023/01/13 03:21:48;;;;;;;1.10;0.88;;;20.20;79.30;;;;;;4875295;29;20216;-81
2023/01/13 03:24:19;;;;;;;1.55;0.90;;;20.20;79.30;;;;;;4874498;29;20221;-79
2023/01/13 03:26:50;;;;;;;2.75;0.70;;;20.20;79.40;;;;;;4872328;29;20669;-79
2023/01/13 03:29:22;;;;;;;1.10;0.80;;;20.20;79.40;;;;;;4876360;29;20194;-80
2023/01/13 03:31:55;;;;;;;1.52;0.85;;;20.20;79.50;;;;;;4874994;29;20209;-81
2023/01/13 03:34:26;;;;;;;1.70;0.90;;;20.20;79.50;;;;;;4880900;29;20650;-80
2023/01/13 03:36:56;;;;;;;0.90;0.70;;;20.20;79.50;;;;;;4879261;29;20204;-80
2023/01/13 03:39:28;;;;;;;2.08;0.95;;;20.30;79.50;;;;;;4876492;29;20225;-80
2023/01/13 03:41:59;;;;;;;1.50;0.85;;;20.40;78.90;;;;;;4879917;29;20210;-81
2023/01/13 03:44:31;;;;;;;2.00;0.80;;;20.50;78.50;;;;;;4880651;29;20210;-80
2023/01/13 03:47:06;;;;;;;2.35;0.80;;;20.50;78.10;;;;;;4883395;29;20220;-81
2023/01/13 03:49:38;;;;;;;1.00;0.80;;;20.60;78.10;;;;;;4884278;29;20236;-81
2023/01/13 03:52:09;;;;;;;1.10;0.77;;;20.50;77.90;;;;;;4880104;29;20211;-80
2023/01/13 03:54:44;;;;;;;2.55;0.70;;;20.50;78.00;;;;;;4881591;29;20216;-81
2023/01/13 03:57:14;;;;;;;1.35;0.75;;;20.40;78.00;;;;;;4884298;29;20219;-81
2023/01/13 03:59:45;;;;;;;1.52;0.70;;;20.40;78.10;;;;;;4881552;29;20267;-81
2023/01/13 04:02:19;;;;;;;1.50;0.80;;;20.40;78.20;;;;;;4879612;29;20205;-80
2023/01/13 04:04:50;;;;;;;1.02;0.77;;;20.40;78.30;;;;;;4882203;29;20203;-80
2023/01/13 04:07:26;;;;;;;1.20;0.90;;;20.40;78.40;;;;;;4878277;29;20216;-79
2023/01/13 04:09:56;;;;;;;1.40;1.17;;;20.30;78.30;;;;;;4882677;29;20206;-79
2023/01/13 04:12:59;;;;;;;1.65;1.00;;;20.30;78.40;;;;;;4881386;29;20204;-79
2023/01/13 04:15:14;;;;;;;0.93;0.60;;;20.30;78.40;;;;;;4879353;29;20740;-80
2023/01/13 04:17:42;;;;;;;1.92;0.93;;;20.30;78.50;;;;;;4879161;29;20618;-80
2023/01/13 04:20:10;;;;;;;1.30;0.75;;;20.20;78.50;;;;;;4882045;29;20214;-79
2023/01/13 04:22:37;;;;;;;1.00;0.80;;;20.20;78.50;;;;;;4878318;29;20224;-81
2023/01/13 04:25:04;;;;;;;0.98;0.70;;;20.20;78.60;;;;;;4876257;29;20977;-81
2023/01/13 04:27:31;;;;;;;1.42;0.90;;;20.20;78.60;;;;;;4882355;29;20203;-81
2023/01/13 04:29:58;;;;;;;1.45;0.70;;;20.20;78.70;;;;;;4876036;29;20241;-81
2023/01/13 04:32:25;;;;;;;1.38;0.90;;;20.20;78.70;;;;;;4879605;29;20222;-81
2023/01/13 04:34:53;;;;;;;1.42;0.70;;;20.20;78.70;;;;;;4881503;29;20206;-81
2023/01/13 04:37:19;;;;;;;2.08;1.00;;;20.10;78.60;;;;;;4872734;29;20206;-81
2023/01/13 04:39:46;;;;;;;1.42;0.80;;;20.10;78.70;;;;;;4881589;29;20225;-80
2023/01/13 04:42:13;;;;;;;1.13;0.90;;;20.10;78.70;;;;;;4880045;29;20213;-81
2023/01/13 04:44:40;;;;;;;0.98;0.65;;;20.20;78.60;;;;;;4876164;29;20628;-81
2023/01/13 04:47:06;;;;;;;1.00;0.80;;;20.40;78.10;;;;;;4880196;29;20677;-81
2023/01/13 04:49:33;;;;;;;1.35;0.80;;;20.40;77.70;;;;;;4882727;29;20233;-81
2023/01/13 04:52:02;;;;;;;1.40;0.98;;;20.50;77.60;;;;;;4882486;29;22198;-81
2023/01/13 04:54:29;;;;;;;2.03;1.00;;;20.40;77.40;;;;;;4880277;29;20209;-80
2023/01/13 04:56:56;;;;;;;1.00;0.80;;;20.40;77.30;;;;;;4880370;29;20218;-81
2023/01/13 04:59:23;;;;;;;1.20;0.82;;;20.40;77.30;;;;;;4877001;29;20738;-80
2023/01/13 05:01:49;;;;;;;1.98;0.80;;;20.40;77.40;;;;;;4878948;29;20217;-82
2023/01/13 05:04:16;;;;;;;1.15;0.70;;;20.40;77.50;;;;;;4882578;29;20278;-81
2023/01/13 05:06:46;;;;;;;1.13;0.70;;;20.30;77.60;;;;;;4880921;29;20212;-81
2023/01/13 05:09:14;;;;;;;1.00;0.70;;;20.30;77.60;;;;;;4876381;29;20205;-81
2023/01/13 05:17:12;;;;;;;1.55;0.82;;;20.20;77.80;;;;;;4876878;29;20217;-81
2023/01/13 05:19:39;;;;;;;1.30;0.77;;;20.20;77.90;;;;;;4881929;29;20226;-81
2023/01/13 05:27:37;;;;;;;1.27;0.80;;;20.20;78.10;;;;;;4882396;29;20339;-81
2023/01/13 05:30:04;;;;;;;2.85;1.23;;;20.10;78.00;;;;;;4878654;29;20205;-81
2023/01/13 05:32:31;;;;;;;1.52;0.80;;;20.10;78.10;;;;;;4881187;29;20683;-81
2023/01/13 05:34:58;;;;;;;1.10;0.80;;;20.10;78.20;;;;;;4883885;29;20209;-81
2023/01/13 05:37:26;;;;;;;1.90;0.90;;;20.10;78.20;;;;;;4882041;29;20215;-82
2023/01/13 05:45:24;;;;;;;1.75;0.98;;;20.10;78.30;;;;;;4880352;29;20252;-82
2023/01/13 05:47:50;;;;;;;1.30;0.90;;;20.30;77.80;;;;;;4882626;29;20197;-81
2023/01/13 05:50:17;;;;;;;1.42;0.73;;;20.40;77.50;;;;;;4882794;29;20673;-81
2023/01/13 05:52:44;;;;;;;1.48;0.80;;;20.40;77.10;;;;;;4880743;29;20214;-81
2023/01/13 05:55:13;;;;;;;1.52;0.98;;;20.40;77.00;;;;;;4881040;29;20210;-80
2023/01/13 05:57:40;;;;;;;2.30;0.90;;;20.40;77.00;;;;;;4876880;29;20216;-81
2023/01/13 06:00:08;;;;;;;2.08;0.85;;;20.40;77.10;;;;;;4878962;29;20823;-81
2023/01/13 06:02:35;;;;;;;1.08;0.73;;;20.30;77.10;;;;;;4878397;29;20680;-80
2023/01/13 06:05:02;;;;;;;1.75;0.98;;;20.30;77.20;;;;;;4880340;29;20235;-81
2023/01/13 06:07:29;;;;;;;1.25;0.80;;;20.30;77.30;;;;;;4879395;29;20206;-81
2023/01/13 06:09:55;;;;;;;0.85;0.68;;;20.20;77.30;;;;;;4879475;29;20216;-80
2023/01/13 06:12:23;;;;;;;1.42;0.90;;;20.20;77.40;;;;;;4881253;29;20218;-81
2023/01/13 06:14:50;;;;;;;0.90;0.80;;;20.20;77.50;;;;;;4881217;29;20214;-81
2023/01/13 06:17:17;;;;;;;1.10;0.70;;;20.10;77.50;;;;;;4878492;29;20220;-80
2023/01/13 06:19:43;;;;;;;0.90;0.70;;;20.10;77.60;;;;;;4878310;29;20229;-79
2023/01/13 06:22:13;;;;;;;1.10;0.80;;;20.10;77.70;;;;;;4881022;29;20208;-80
2023/01/13 06:24:40;;;;;;;1.00;0.77;;;20.00;77.70;;;;;;4878084;29;20203;-80
2023/01/13 06:27:08;;;;;;;1.88;1.00;;;20.00;77.80;;;;;;4873771;29;20226;-80
2023/01/13 06:29:36;;;;;;;1.30;0.85;;;20.00;77.90;;;;;;4879549;29;20214;-81
2023/01/13 06:32:06;;;;;;;1.50;0.75;;;20.00;78.10;;;;;;4871763;29;20204;-80
2023/01/13 06:34:34;;;;;;;1.52;1.38;;;19.90;78.90;;;;;;4879968;29;20206;-80
2023/01/13 06:37:02;;;;;;;1.20;0.93;;;19.90;78.20;;;;;;4877217;29;20213;-80
2023/01/13 06:39:30;;;;;;;1.50;0.88;;;20.10;78.10;;;;;;4881139;29;20225;-81
2023/01/13 06:44:58;;;;;;;1.25;0.80;;;20.50;76.30;;;;;;4830153;29;20203;-80
2023/01/13 06:47:25;;;;;;;1.08;0.77;;;20.80;75.00;;;;;;4823980;29;20204;-81
2023/01/13 06:49:52;;;;;;;1.33;0.60;;;21.00;74.40;;;;;;4850297;29;20241;-80
2023/01/13 06:52:19;;;;;;;1.90;0.90;;;21.10;74.00;;;;;;4879691;29;20306;-80
2023/01/13 06:54:45;;;;;;;1.88;0.85;;;21.20;73.50;;;;;;4877750;29;20217;-80
2023/01/13 06:57:12;;;;;;;2.38;0.80;;;21.30;73.20;;;;;;4875964;29;20637;-78
2023/01/13 06:59:39;;;;;;;1.00;0.70;;;21.40;72.90;;;;;;4877145;29;20586;-78
2023/01/13 07:02:07;;;;;;;1.13;0.77;;;21.50;72.60;;;;;;4875972;29;20202;-79
2023/01/13 07:04:34;;;;;;;1.02;0.70;;;21.50;72.50;;;;;;4876781;29;20677;-78
2023/01/13 07:07:00;;;;;;;1.38;1.00;;;21.60;72.20;;;;;;4880323;29;20210;-79
2023/01/13 07:09:27;;;;;;;1.25;0.85;;;21.70;71.90;;;;;;4878262;29;20199;-77
2023/01/13 07:11:54;;;;;;;1.80;1.00;;;21.70;71.80;;;;;;4878585;29;20578;-78
2023/01/13 07:17:06;;;;;;;0.90;0.70;;;21.60;72.00;;;;;;4875661;29;20221;-77
2023/01/13 07:19:33;;;;;;;1.20;0.70;;;21.50;72.20;;;;;;4876551;29;20223;-78
2023/01/13 07:22:00;;;;;;;0.90;0.70;;;21.60;72.10;;;;;;4882238;29;20675;-76
2023/01/13 07:24:27;;;;;;;1.30;0.77;;;21.70;71.90;;;;;;4882285;29;20218;-79
2023/01/13 07:26:53;;;;;;;1.45;0.70;;;21.80;71.60;;;;;;4884865;29;20211;-77
2023/01/13 07:29:20;;;;;;;0.90;0.70;;;21.80;71.50;;;;;;4883547;29;20222;-79
2023/01/13 07:31:47;;;;;;;1.13;0.80;;;21.80;71.50;;;;;;4881435;29;20675;-79
2023/01/13 07:34:16;;;;;;;1.10;1.00;;;21.90;71.40;;;;;;4878896;29;20211;-79
2023/01/13 07:36:42;;;;;;;1.48;0.68;;;22.00;71.00;;;;;;4884072;29;20210;-78
2023/01/13 07:39:09;;;;;;;1.88;0.90;;;22.00;71.00;;;;;;4882994;29;20227;-77
2023/01/13 07:44:20;;;;;;;0.90;0.70;;;21.90;71.20;;;;;;4883194;29;20369;-78
2023/01/13 07:46:47;;;;;;;1.98;1.35;;;21.80;71.40;;;;;;4878239;29;20214;-79
2023/01/13 07:49:15;;;;;;;1.30;0.82;;;21.70;71.50;;;;;;4880302;29;20655;-77
2023/01/13 07:51:42;;;;;;;1.35;0.80;;;21.70;71.80;;;;;;4880131;29;20212;-79
2023/01/13 07:54:09;;;;;;;1.35;0.70;;;21.70;71.90;;;;;;4882245;29;20211;-78
2023/01/13 07:56:35;;;;;;;1.40;0.70;;;21.70;71.80;;;;;;4883163;29;20203;-78
2023/01/13 07:59:02;;;;;;;2.80;0.80;;;21.80;71.70;;;;;;4878606;29;20229;-80
2023/01/13 08:01:30;;;;;;;1.10;0.80;;;21.90;71.40;;;;;;4878563;29;20940;-79
2023/01/13 08:03:57;;;;;;;1.00;0.70;;;22.00;71.20;;;;;;4881443;29;20704;-79
2023/01/13 08:06:26;;;;;;;1.33;0.80;;;22.00;71.00;;;;;;4880615;29;20212;-78
2023/01/13 08:08:53;;;;;;;1.08;0.70;;;22.10;70.90;;;;;;4881874;29;20204;-80
2023/01/13 08:11:20;;;;;;;0.93;0.75;;;22.10;70.70;;;;;;4880935;29;20228;-79
2023/01/13 08:13:46;;;;;;;1.13;0.70;;;22.10;70.50;;;;;;4883480;29;20221;-77
2023/01/13 08:16:15;;;;;;;1.00;0.80;;;22.10;70.60;;;;;;4878022;29;20198;-78
2023/01/13 08:18:42;;;;;;;0.93;0.70;;;22.00;70.80;;;;;;4881912;29;20690;-77
2023/01/13 08:21:11;;;;;;;1.00;0.70;;;22.00;70.90;;;;;;4880049;29;20227;-76
2023/01/13 08:23:40;;;;;;;1.55;0.70;;;21.90;71.20;;;;;;4876084;29;20216;-77
2023/01/13 08:26:09;;;;;;;2.03;1.00;;;21.80;72.80;;;;;;4880717;29;20203;-77
2023/01/13 08:28:36;;;;;;;1.15;0.70;;;21.60;74.20;;;;;;4875772;29;20234;-75
2023/01/13 08:31:04;;;;;;;2.80;0.80;;;21.60;73.60;;;;;;4877800;29;20216;-76
2023/01/13 08:33:31;;;;;;;1.80;0.80;;;21.70;73.80;;;;;;4872044;29;20209;-78
2023/01/13 08:35:58;;;;;;;7.55;0.80;;;21.70;74.00;;;;;;4877447;29;20664;-76
2023/01/13 08:38:25;;;;;;;0.90;0.70;;;21.70;73.80;;;;;;4876957;29;20203;-82
2023/01/13 08:40:54;;;;;;;1.00;0.70;;;21.80;73.90;;;;;;4879020;29;20233;-80
2023/01/13 08:43:20;;;;;;;1.00;0.73;;;21.90;73.50;;;;;;4876784;29;20210;-80
2023/01/13 08:45:56;;;;;;;1.63;0.73;;;21.90;73.40;;;;;;4874844;29;20210;-80
2023/01/13 08:48:23;;;;;;;1.00;0.70;;;21.90;73.30;;;;;;4875222;29;20293;-78
2023/01/13 08:50:50;;;;;;;1.92;0.90;;;21.90;73.20;;;;;;4873528;29;20730;-79
2023/01/13 08:53:16;;;;;;;1.52;0.90;;;22.00;73.10;;;;;;4877269;29;20203;-79
2023/01/13 08:55:43;;;;;;;1.73;0.88;;;22.00;73.00;;;;;;4883118;29;20226;-79
2023/01/13 08:58:11;;;;;;;1.65;0.77;;;22.00;72.90;;;;;;4878408;29;20579;-79
2023/01/13 09:01:27;;;;;;;3.50;0.80;;;22.00;72.80;;;;;;4876656;29;20227;-79
2023/01/13 09:04:43;;;;;;;3.83;0.80;;;22.00;72.60;;;;;;4873425;29;20208;-78
2023/01/13 09:08:01;;;;;;;1.55;0.90;;;22.00;72.60;;;;;;4881096;29;20211;-77
2023/01/13 09:14:49;;;;;;;1.23;0.98;;;21.90;72.80;;;;;;4849007;29;20249;-78
2023/01/13 09:18:06;;;;;;;1.23;0.80;;;21.90;73.10;;;;;;4873456;29;20213;-78
2023/01/13 09:21:22;;;;;;;1.20;0.80;;;21.80;73.40;;;;;;4876478;29;20632;-78
2023/01/13 09:24:39;;;;;;;0.90;0.60;;;21.90;73.20;;;;;;4875117;29;20210;-76
2023/01/13 09:27:09;;;;;;;1.40;0.80;;;21.90;73.10;;;;;;4882502;29;20211;-78
2023/01/13 09:29:36;;;;;;;1.00;0.70;;;21.90;72.90;;;;;;4876559;29;21919;-79
2023/01/13 09:32:03;;;;;;;1.67;0.80;;;22.00;72.90;;;;;;4873193;29;20207;-77
2023/01/13 09:37:14;;;;;;;7.28;1.38;;;21.80;73.10;;;;;;4876874;29;20207;-80
2023/01/13 09:39:42;;;;;;;4.85;1.30;;;21.80;73.50;;;;;;4873341;29;20235;-80
2023/01/13 09:45:08;;;;;;;1.93;0.93;;;22.10;73.00;;;;;;4877730;29;20221;-78
2023/01/13 09:47:40;;;;;;;1.90;1.02;;;22.20;72.60;;;;;;4879956;29;20492;-77
2023/01/13 09:50:19;;;;;;;2.45;0.80;;;22.20;72.40;;;;;;4879976;29;20226;-80
2023/01/13 09:52:46;;;;;;;4.32;1.60;;;22.20;72.40;;;;;;4880502;29;20218;-79
2023/01/13 09:55:16;;;;;;;1.60;0.90;;;22.10;72.40;;;;;;4877322;29;20258;-78
2023/01/13 09:57:44;;;;;;;2.13;0.90;;;22.10;72.70;;;;;;4881597;29;20682;-79
2023/01/13 10:00:20;;;;;;;1.42;1.02;;;21.90;72.70;;;;;;4878945;29;20563;-78
2023/01/13 10:03:10;;;;;;;4.20;1.05;;;21.90;73.00;;;;;;4877241;29;20206;-77
2023/01/13 10:05:38;;;;;;;2.00;1.13;;;21.80;73.20;;;;;;4877496;29;20608;-77
2023/01/13 10:08:11;;;;;;;2.08;1.05;;;21.70;73.50;;;;;;4879437;29;20212;-77
2023/01/13 10:10:43;;;;;;;2.15;0.85;;;21.70;73.80;;;;;;4876117;29;20223;-78
2023/01/13 10:13:18;;;;;;;2.17;0.80;;;21.60;73.90;;;;;;4880481;29;20214;-78
2023/01/13 10:15:59;;;;;;;1.65;0.90;;;21.60;73.80;;;;;;4878505;29;20515;-78
2023/01/13 10:18:33;;;;;;;1.38;0.90;;;21.70;73.80;;;;;;4871905;29;20583;-78
2023/01/13 10:21:07;;;;;;;1.55;0.90;;;21.80;73.30;;;;;;4874623;29;20226;-78
2023/01/13 10:23:46;;;;;;;1.55;1.00;;;22.00;73.00;;;;;;4874615;29;20211;-78
2023/01/13 10:26:26;;;;;;;2.03;1.00;;;22.10;72.50;;;;;;4881220;29;20671;-78
2023/01/13 10:28:54;;;;;;;1.00;0.80;;;22.20;72.20;;;;;;4879376;29;20207;-79
2023/01/13 10:31:22;;;;;;;2.22;0.90;;;22.30;71.80;;;;;;4876522;29;20219;-78
2023/01/13 10:33:57;;;;;;;2.20;0.80;;;22.40;71.60;;;;;;4880000;29;20726;-78
2023/01/13 10:36:24;;;;;;;1.40;1.10;;;22.40;71.60;;;;;;4870896;29;20475;-80
2023/01/13 10:39:07;;;;;;;1.38;1.00;;;22.40;71.50;;;;;;4870591;29;20211;-78
2023/01/13 10:41:35;;;;;;;1.43;1.00;;;22.40;71.50;;;;;;4871742;29;20231;-75
2023/01/13 10:44:06;;;;;;;1.98;1.00;;;22.40;71.40;;;;;;4871632;29;20500;-79
2023/01/13 10:46:34;;;;;;;2.00;0.90;;;22.40;71.60;;;;;;4879013;29;20678;-77
2023/01/13 10:49:03;;;;;;;1.58;0.95;;;22.30;71.80;;;;;;4881202;29;21007;-76
2023/01/13 10:51:42;;;;;;;1.88;1.00;;;22.30;72.30;;;;;;4879211;29;20207;-77
2023/01/13 10:54:21;;;;;;;1.10;0.80;;;22.30;72.30;;;;;;4880063;29;20678;-76
2023/01/13 10:56:49;;;;;;;1.90;1.07;;;22.30;72.20;;;;;;4885177;29;20516;-77
2023/01/13 10:59:23;;;;;;;2.60;1.20;;;22.30;72.10;;;;;;4881090;29;20486;-77
2023/01/13 11:01:59;;;;;;;2.97;1.42;;;22.30;72.20;;;;;;4882572;29;20227;-77
2023/01/13 11:04:30;;;;;;;1.42;1.15;;;22.30;72.30;;;;;;4883665;29;20207;-77
2023/01/13 11:06:57;;;;;;;1.80;1.05;;;22.30;72.30;;;;;;4884855;29;20287;-77
2023/01/13 11:09:26;;;;;;;2.00;1.23;;;22.30;72.30;;;;;;4884252;29;20230;-76
2023/01/13 11:11:55;;;;;;;2.25;1.10;;;22.20;72.30;;;;;;4885348;29;20669;-76
2023/01/13 11:14:38;;;;;;;2.35;1.20;;;22.20;72.30;;;;;;4884743;29;20206;-76
2023/01/13 11:17:37;;;;;;;1.50;0.90;;;22.20;73.10;;;;;;4875483;29;22077;-76
2023/01/13 11:20:16;;;;;;;1.90;1.33;;;22.20;72.40;;;;;;4877684;29;20626;-76
2023/01/13 11:22:46;;;;;;;1.48;1.20;;;22.20;72.40;;;;;;4873156;29;20478;-78
2023/01/13 11:25:19;;;;;;;1.80;1.40;;;22.20;72.40;;;;;;4880064;29;20203;-84
2023/01/13 11:27:54;;;;;;;1.85;1.08;;;22.20;72.10;;;;;;4883595;29;20475;-78
2023/01/13 11:30:32;;;;;;;1.98;1.50;;;22.20;73.00;;;;;;4882049;29;20369;-84
2023/01/13 11:33:25;;;;;;;1.77;1.00;;;22.20;72.80;;;;;;4886469;29;20207;-81
2023/01/13 11:36:05;;;;;;;2.22;1.17;;;22.20;73.10;;;;;;4883099;29;20203;-91
2023/01/13 11:38:40;;;;;;;1.45;1.00;;;22.20;72.80;;;;;;4883137;29;20235;-85
2023/01/13 11:41:14;;;;;;;2.78;1.80;;;22.50;72.50;;;;;;4875726;29;20229;-85
2023/01/13 11:43:49;;;;;;;1.73;1.20;;;22.80;71.90;;;;;;4876240;29;20613;-88
2023/01/13 11:46:26;;;;;;;2.40;1.47;;;22.90;71.50;;;;;;4873604;29;20214;-86
2023/01/13 11:48:55;;;;;;;1.38;1.08;;;23.00;71.30;;;;;;4875749;29;20485;-89
2023/01/13 11:51:33;;;;;;;3.80;1.20;;;23.10;71.00;;;;;;4876471;29;20356;-88
2023/01/13 11:54:24;;;;;;;1.75;1.00;;;23.20;70.80;;;;;;4874316;29;20486;-89
2023/01/13 11:57:07;;;;;;;6.03;1.23;;;23.30;70.30;;;;;;4889115;29;20203;-90
2023/01/13 11:59:54;;;;;;;2.50;1.00;;;23.30;70.30;;;;;;4886802;29;20460;-88
2023/01/13 12:02:36;;;;;;;2.58;1.10;;;23.20;70.50;;;;;;4885203;29;20506;-88
2023/01/13 12:05:14;;;;;;;2.63;1.13;;;23.20;70.80;;;;;;4889915;29;20298;-90
2023/01/13 12:07:49;;;;;;;1.95;1.27;;;23.20;70.70;;;;;;4885900;29;20222;-89
2023/01/13 12:10:28;;;;;;;2.27;0.93;;;23.20;70.70;;;;;;4883908;29;20658;-89
2023/01/13 12:13:03;;;;;;;1.50;1.13;;;23.30;70.70;;;;;;4881429;29;20988;-89
2023/01/13 12:16:08;;;;;;;2.60;0.97;;;23.30;70.90;;;;;;4875580;29;20463;-88
2023/01/13 12:18:51;;;;;;;1.60;1.10;;;23.20;70.80;;;;;;4874531;29;20482;-86
2023/01/13 12:21:22;;;;;;;2.28;1.02;;;23.20;70.80;;;;;;4880683;29;20534;-92
2023/01/13 12:23:59;;;;;;;6.53;1.30;;;23.20;70.80;;;;;;4881553;29;20628;-89
2023/01/13 12:26:29;;;;;;;2.70;1.10;;;23.20;70.60;;;;;;4883326;29;20955;-88
2023/01/13 12:28:59;;;;;;;3.83;1.10;;;23.20;70.90;;;;;;4889537;29;20459;-88
2023/01/13 12:31:28;;;;;;;1.87;1.20;;;23.30;71.00;;;;;;4878938;29;20623;-88
2023/01/13 12:34:07;;;;;;;3.30;1.10;;;23.50;70.30;;;;;;4877799;29;20932;-88
2023/01/13 12:36:47;;;;;;;2.30;0.97;;;23.60;69.80;;;;;;4873025;29;20469;-87
2023/01/13 12:39:20;;;;;;;1.60;1.10;;;23.90;69.30;;;;;;4882836;29;20465;-86
2023/01/13 12:44:37;;;;;;;3.90;1.50;;;23.60;69.50;;;;;;4881195;29;20557;-88
2023/01/13 12:47:04;;;;;;;2.42;1.00;;;23.60;70.20;;;;;;4882971;29;20463;-88
2023/01/13 12:49:35;;;;;;;2.83;1.30;;;23.50;70.00;;;;;;4886619;29;20709;-88
2023/01/13 12:52:09;;;;;;;2.10;1.10;;;23.50;70.40;;;;;;4878494;29;20625;-89
2023/01/13 12:55:16;;;;;;;3.00;1.10;;;23.40;70.40;;;;;;4880134;29;20956;-88
2023/01/13 12:57:57;;;;;;;5.43;0.90;;;23.40;70.50;;;;;;4886960;29;21018;-93
2023/01/13 13:00:30;;;;;;;1.80;1.20;;;23.40;70.60;;;;;;4883768;29;20472;-92
2023/01/13 13:03:27;;;;;;;2.80;0.90;;;23.40;71.50;;;;;;4878566;29;20975;-89
2023/01/13 13:05:59;;;;;;;4.20;1.00;;;23.40;70.60;;;;;;4880380;29;20503;-91
2023/01/13 13:08:45;;;;;;;1.40;0.93;;;23.40;70.70;;;;;;4880773;29;20988;-91
2023/01/13 13:15:04;;;;;;;1.20;0.80;;;23.40;70.90;;;;;;4879120;29;20508;-89
2023/01/13 13:17:45;;;;;;;1.40;0.90;;;23.40;70.90;;;;;;4879798;29;20553;-89
2023/01/13 13:20:52;;;;;;;1.03;0.80;;;23.40;71.00;;;;;;4878910;29;20479;-86
2023/01/13 13:23:47;;;;;;;1.37;0.83;;;23.40;71.00;;;;;;4877517;29;20475;-84
2023/01/13 13:26:30;;;;;;;2.10;1.50;;;23.40;71.00;;;;;;4868784;29;20540;-84
2023/01/13 13:29:22;;;;;;;1.50;0.93;;;23.30;71.10;;;;;;4879822;29;20503;-86
2023/01/13 13:32:27;;;;;;;2.07;1.30;;;23.40;71.10;;;;;;4876422;29;20460;-90
2023/01/13 13:35:07;;;;;;;1.20;0.90;;;23.30;71.10;;;;;;4879442;29;20457;-88
2023/01/13 13:49:12;;;;;;;3.20;1.20;;;23.40;70.40;;;;;;4884416;29;20490;-90
2023/01/13 13:51:43;;;;;;;1.83;1.27;;;23.40;71.10;;;;;;4884855;29;20909;-92
2023/01/13 13:54:13;;;;;;;1.43;0.90;;;23.40;70.30;;;;;;4881765;29;20559;-91
2023/01/13 13:56:44;;;;;;;1.43;0.90;;;23.30;70.40;;;;;;4878351;29;20566;-90
2023/01/13 13:59:13;;;;;;;1.37;0.80;;;23.30;70.50;;;;;;4878790;29;20465;-87
2023/01/13 14:01:43;;;;;;;1.80;1.00;;;23.30;70.40;;;;;;4879767;29;20546;-89
2023/01/13 14:04:19;;;;;;;3.83;1.20;;;23.30;70.50;;;;;;4879893;29;20513;-88
2023/01/13 14:06:50;;;;;;;2.60;0.90;;;23.40;70.50;;;;;;4875949;29;20470;-79
2023/01/13 14:09:17;;;;;;;2.23;0.97;;;23.30;70.20;;;;;;4872231;29;20918;-78
2023/01/13 14:11:55;;;;;;;2.93;1.10;;;22.90;71.50;;;;;;4874687;29;20468;-81
2023/01/13 14:14:22;;;;;;;2.90;1.00;;;22.70;72.30;;;;;;4873783;29;20518;-79
2023/01/13 14:16:50;;;;;;;2.65;1.35;;;22.60;72.80;;;;;;4869451;29;20862;-79
2023/01/13 14:19:27;;;;;;;2.70;1.13;;;22.50;72.90;;;;;;4875384;29;20805;-77